Time;durP1;ratioP1;P1;durP2;ratioP2;P2;SDS_P1;SDS_P2;PMS_P1;PMS_P2;Temp;Humidity;BMP_temperature;BMP_pressure;BME280_temperature;BME280_humidity;BME280_pressure;Samples;Min_cycle;Max_cycle;Signal;HPM_P1;HPM_P2
2021/07/14 00:01:11;;;;;;;;;;;26.50;99.90;;;;;;1804208;78;20494;-92
2021/07/14 00:03:38;;;;;;;;;;;26.50;99.90;;;;;;1770380;80;20129;-94
2021/07/14 00:06:14;;;;;;;;;;;26.50;99.90;;;;;;1770086;80;20160;-93
2021/07/14 00:08:44;;;;;;;;;;;26.50;99.90;;;;;;1782917;79;20152;-94
2021/07/14 00:11:41;;;;;;;;;;;26.50;99.90;;;;;;1773233;80;20180;-93
2021/07/14 00:24:16;;;;;;;;;;;26.50;99.90;;;;;;1807119;78;20172;-91
2021/07/14 00:26:50;;;;;;;;;;;26.50;99.90;;;;;;1780529;79;20269;-92
2021/07/14 00:29:25;;;;;;;;;;;26.60;99.90;;;;;;1809370;78;20169;-90
2021/07/14 00:31:55;;;;;;;;;;;26.60;99.90;;;;;;1818220;78;20215;-91
2021/07/14 00:34:37;;;;;;;;;;;;;;;;;;;;;
2021/07/14 00:37:05;;;;;;;;;;;26.70;99.90;;;;;;1743499;80;20248;-91
2021/07/14 00:39:34;;;;;;;;;;;26.60;99.90;;;;;;1738498;81;20288;-91
2021/07/14 00:45:18;;;;;;;;;;;26.70;99.90;;;;;;1638565;86;20314;-90
2021/07/14 00:45:26;;;;;;;;;;;;;;;;;;;;;
2021/07/14 00:48:28;;;;;;;;;;;26.70;99.90;;;;;;1706870;83;20260;-92
2021/07/14 00:51:31;;;;;;;;;;;;;;;;;;;;;
2021/07/14 00:53:59;;;;;;;;;;;26.80;99.90;;;;;;1711697;83;20247;-92
2021/07/14 00:56:40;;;;;;;;;;;;;;;;;;;;;
2021/07/14 00:59:05;;;;;;;;;;;26.90;99.90;;;;;;1704974;83;20602;-91
2021/07/14 01:04:42;;;;;;;;;;;26.90;99.90;;;;;;1674071;81;20216;-90
2021/07/14 01:07:13;;;;;;;;;;;26.90;99.90;;;;;;1709370;83;20230;-93
2021/07/14 01:09:44;;;;;;;;;;;27.00;99.90;;;;;;1718213;82;20248;-92
2021/07/14 01:12:15;;;;;;;;;;;27.00;99.90;;;;;;1718531;82;20225;-90
2021/07/14 01:14:46;;;;;;;;;;;26.90;99.90;;;;;;1724617;82;20275;-89
2021/07/14 01:17:17;;;;;;;;;;;27.00;99.90;;;;;;1706215;83;20381;-92
2021/07/14 01:19:48;;;;;;;;;;;27.00;99.90;;;;;;1719534;82;20280;-90
2021/07/14 01:22:19;;;;;;;;;;;27.00;99.90;;;;;;1703699;82;20237;-90
2021/07/14 01:24:49;;;;;;;;;;;27.00;99.90;;;;;;1713664;82;20320;-91
2021/07/14 01:27:20;;;;;;;;;;;27.00;99.90;;;;;;1691127;84;20226;-90
2021/07/14 01:29:51;;;;;;;;;;;26.90;99.90;;;;;;1737284;81;20237;-91
2021/07/14 01:32:22;;;;;;;;;;;27.00;99.90;;;;;;1738916;81;20255;-92
2021/07/14 01:34:53;;;;;;;;;;;26.90;99.90;;;;;;1738845;81;20258;-92
2021/07/14 01:37:24;;;;;;;;;;;27.00;99.90;;;;;;1733180;82;20266;-93
2021/07/14 01:40:00;;;;;;;;;;;27.00;99.90;;;;;;1737392;81;20546;-91
2021/07/14 01:42:31;;;;;;;;;;;27.00;99.90;;;;;;1732823;81;21899;-90
2021/07/14 01:45:01;;;;;;;;;;;27.00;99.90;;;;;;1736697;81;20288;-93
2021/07/14 01:47:32;;;;;;;;;;;27.00;99.90;;;;;;1700865;83;20586;-92
2021/07/14 01:50:02;;;;;;;;;;;27.10;99.90;;;;;;1689685;84;20307;-91
2021/07/14 01:52:33;;;;;;;;;;;27.10;99.90;;;;;;1712295;82;20398;-88
2021/07/14 01:55:05;;;;;;;;;;;27.20;99.90;;;;;;1767883;80;20213;-92
2021/07/14 01:57:36;;;;;;;;;;;27.20;99.90;;;;;;1807875;78;20177;-94
2021/07/14 02:00:07;;;;;;;;;;;27.30;99.90;;;;;;1772341;79;20172;-91
2021/07/14 02:02:43;;;;;;;;;;;27.30;99.90;;;;;;1770293;80;20219;-93
2021/07/14 02:05:09;;;;;;;;;;;27.40;99.90;;;;;;1806654;78;20569;-94
2021/07/14 02:07:39;;;;;;;;;;;27.40;99.90;;;;;;1825062;78;20217;-94
2021/07/14 02:10:08;;;;;;;;;;;27.50;99.90;;;;;;1777515;78;20211;-90
2021/07/14 02:12:39;;;;;;;;;;;27.60;99.90;;;;;;1786595;79;20200;-84
2021/07/14 02:15:12;;;;;;;;;;;27.60;99.90;;;;;;1765251;80;20205;-82
2021/07/14 02:17:43;;;;;;;;;;;27.60;99.90;;;;;;1759221;80;20170;-82
2021/07/14 02:20:16;;;;;;;;;;;27.60;99.90;;;;;;1768762;80;20262;-82
2021/07/14 02:23:04;;;;;;;;;;;27.60;99.90;;;;;;1727699;79;20186;-82
2021/07/14 02:25:34;;;;;;;;;;;27.60;99.90;;;;;;1812544;78;20243;-82
2021/07/14 02:28:05;;;;;;;;;;;27.60;99.90;;;;;;1769189;80;20240;-82
2021/07/14 02:30:34;;;;;;;;;;;27.70;99.90;;;;;;1796471;79;20228;-81
2021/07/14 02:33:05;;;;;;;;;;;27.70;99.90;;;;;;1796224;78;20174;-84
2021/07/14 02:35:36;;;;;;;;;;;27.80;99.90;;;;;;1805301;78;20185;-83
2021/07/14 02:38:07;;;;;;;;;;;27.80;99.90;;;;;;1798369;79;20264;-82
2021/07/14 02:40:38;;;;;;;;;;;27.90;99.90;;;;;;1802884;79;20182;-84
2021/07/14 02:43:09;;;;;;;;;;;28.00;99.90;;;;;;1795347;78;20196;-81
2021/07/14 02:45:40;;;;;;;;;;;28.00;99.90;;;;;;1803589;79;20244;-82
2021/07/14 02:48:11;;;;;;;;;;;28.00;99.90;;;;;;1800709;79;20174;-82
2021/07/14 02:50:41;;;;;;;;;;;28.00;99.90;;;;;;1774206;79;20194;-84
2021/07/14 02:53:12;;;;;;;;;;;28.10;99.90;;;;;;1802614;79;20205;-84
2021/07/14 02:55:42;;;;;;;;;;;28.10;99.90;;;;;;1801214;79;20170;-84
2021/07/14 02:58:14;;;;;;;;;;;28.10;99.90;;;;;;1806780;78;20295;-85
2021/07/14 03:00:44;;;;;;;;;;;28.10;99.90;;;;;;1802219;78;20170;-83
2021/07/14 03:03:14;;;;;;;;;;;28.10;99.90;;;;;;1801335;78;20195;-83
2021/07/14 03:05:45;;;;;;;;;;;28.20;99.90;;;;;;1806582;78;20173;-83
2021/07/14 03:08:16;;;;;;;;;;;28.20;99.90;;;;;;1805962;78;20205;-85
2021/07/14 03:10:45;;;;;;;;;;;28.20;99.90;;;;;;1775732;80;20266;-83
2021/07/14 03:13:17;;;;;;;;;;;28.30;99.90;;;;;;1795215;79;20233;-82
2021/07/14 03:15:47;;;;;;;;;;;28.30;99.80;;;;;;1792554;78;20572;-84
2021/07/14 03:18:18;;;;;;;;;;;28.30;99.90;;;;;;1786609;80;20206;-82
2021/07/14 03:20:49;;;;;;;;;;;28.40;99.90;;;;;;1802663;79;20215;-83
2021/07/14 03:23:19;;;;;;;;;;;28.40;99.90;;;;;;1796775;79;20171;-82
2021/07/14 03:25:50;;;;;;;;;;;28.40;99.90;;;;;;1780632;79;20785;-81
2021/07/14 03:28:21;;;;;;;;;;;28.50;99.80;;;;;;1769037;80;20223;-83
2021/07/14 03:30:52;;;;;;;;;;;28.50;99.40;;;;;;1772404;80;20231;-82
2021/07/14 03:33:22;;;;;;;;;;;28.50;99.40;;;;;;1771819;79;20542;-84
2021/07/14 03:35:52;;;;;;;;;;;28.50;99.70;;;;;;1768160;80;20447;-80
2021/07/14 03:38:26;;;;;;;;;;;28.60;99.50;;;;;;1761403;80;20227;-82
2021/07/14 03:40:56;;;;;;;;;;;28.60;99.50;;;;;;1767416;79;20160;-81
2021/07/14 03:43:27;;;;;;;;;;;28.60;99.40;;;;;;1799113;79;20171;-83
2021/07/14 03:45:57;;;;;;;;;;;28.70;99.10;;;;;;1772053;81;20180;-80
2021/07/14 03:48:30;;;;;;;;;;;28.80;98.90;;;;;;1774185;79;20247;-80
2021/07/14 03:51:00;;;;;;;;;;;29.00;99.40;;;;;;1767229;80;20205;-80
2021/07/14 03:53:30;;;;;;;;;;;29.20;98.50;;;;;;1779416;79;20185;-81
2021/07/14 03:56:02;;;;;;;;;;;29.30;98.00;;;;;;1801016;78;20476;-80
2021/07/14 03:58:34;;;;;;;;;;;29.50;97.10;;;;;;1798070;78;20154;-81
2021/07/14 04:01:03;;;;;;;;;;;29.60;96.90;;;;;;1794491;79;20644;-80
2021/07/14 04:03:33;;;;;;;;;;;29.70;96.30;;;;;;1764318;79;20295;-80
2021/07/14 04:06:05;;;;;;;;;;;29.70;95.90;;;;;;1769175;79;20195;-80
2021/07/14 04:08:36;;;;;;;;;;;29.70;95.90;;;;;;1792948;80;20236;-82
2021/07/14 04:11:14;;;;;;;;;;;29.80;96.20;;;;;;1770595;80;20203;-80
2021/07/14 04:13:41;;;;;;;;;;;29.90;96.00;;;;;;1776786;80;20228;-82
2021/07/14 04:16:11;;;;;;;;;;;30.00;96.40;;;;;;1773753;80;20176;-80
2021/07/14 04:18:41;;;;;;;;;;;30.10;96.00;;;;;;1768085;80;20220;-85
2021/07/14 04:21:11;;;;;;;;;;;30.20;95.80;;;;;;1757211;80;20203;-81
2021/07/14 04:23:41;;;;;;;;;;;30.30;95.00;;;;;;1767370;80;20464;-82
2021/07/14 04:26:10;;;;;;;;;;;30.30;95.10;;;;;;1762132;81;20522;-82
2021/07/14 04:28:40;;;;;;;;;;;30.20;95.30;;;;;;1787532;78;20176;-81
2021/07/14 04:31:17;;;;;;;;;;;30.20;95.60;;;;;;1780704;79;20174;-81
2021/07/14 04:33:50;;;;;;;;;;;30.20;95.10;;;;;;1792701;79;20139;-82
2021/07/14 04:36:20;;;;;;;;;;;30.10;95.00;;;;;;1759027;81;20451;-81
2021/07/14 04:38:50;;;;;;;;;;;30.10;95.00;;;;;;1764183;81;20227;-82
2021/07/14 04:41:20;;;;;;;;;;;30.10;95.00;;;;;;1760406;79;20214;-81
2021/07/14 04:43:50;;;;;;;;;;;30.10;95.40;;;;;;1799307;79;20248;-80
2021/07/14 04:46:19;;;;;;;;;;;30.10;95.30;;;;;;1785777;80;20473;-81
2021/07/14 04:48:49;;;;;;;;;;;30.20;95.40;;;;;;1794216;80;20283;-82
2021/07/14 04:51:20;;;;;;;;;;;30.40;95.30;;;;;;1788942;79;20252;-80
2021/07/14 04:53:50;;;;;;;;;;;30.50;94.90;;;;;;1781150;79;20180;-80
2021/07/14 04:56:20;;;;;;;;;;;30.60;94.80;;;;;;1790126;80;20217;-80
2021/07/14 04:58:50;;;;;;;;;;;30.70;94.50;;;;;;1778340;79;20277;-80
2021/07/14 05:01:19;;;;;;;;;;;30.80;94.30;;;;;;1786279;78;20200;-81
2021/07/14 05:03:53;;;;;;;;;;;30.90;93.70;;;;;;1777809;79;20178;-82
2021/07/14 05:06:23;;;;;;;;;;;30.90;93.40;;;;;;1787511;78;20206;-78
2021/07/14 05:08:58;;;;;;;;;;;31.00;94.00;;;;;;1782101;79;20262;-79
2021/07/14 05:11:28;;;;;;;;;;;31.10;93.40;;;;;;1794786;80;20201;-76
2021/07/14 05:13:58;;;;;;;;;;;31.20;92.70;;;;;;1778080;80;20244;-78
2021/07/14 05:16:28;;;;;;;;;;;31.30;92.70;;;;;;1782513;78;20204;-78
2021/07/14 05:18:58;;;;;;;;;;;31.30;92.40;;;;;;1786920;80;20273;-77
2021/07/14 05:21:31;;;;;;;;;;;31.40;92.10;;;;;;1786651;80;20288;-77
2021/07/14 05:24:01;;;;;;;;;;;31.30;92.20;;;;;;1792749;80;20496;-77
2021/07/14 05:26:30;;;;;;;;;;;31.30;92.40;;;;;;1790406;80;20229;-77
2021/07/14 05:29:00;;;;;;;;;;;31.20;91.90;;;;;;1781298;80;20210;-78
2021/07/14 05:31:29;;;;;;;;;;;31.10;92.40;;;;;;1785190;80;20223;-78
2021/07/14 05:34:02;;;;;;;;;;;31.20;92.40;;;;;;1782385;80;20561;-77
2021/07/14 05:36:35;;;;;;;;;;;31.30;92.30;;;;;;1779003;80;20245;-78
2021/07/14 05:39:05;;;;;;;;;;;31.50;91.20;;;;;;1779603;80;20409;-78
2021/07/14 05:41:36;;;;;;;;;;;31.50;91.10;;;;;;1785642;80;20226;-78
2021/07/14 05:44:06;;;;;;;;;;;31.60;91.50;;;;;;1783904;80;20236;-76
2021/07/14 05:46:35;;;;;;;;;;;31.80;91.40;;;;;;1785418;79;20254;-78
2021/07/14 05:49:10;;;;;;;;;;;32.00;91.00;;;;;;1780524;79;20302;-77
2021/07/14 05:51:36;;;;;;;;;;;32.00;91.00;;;;;;1789703;79;20411;-78
2021/07/14 05:54:07;;;;;;;;;;;32.00;90.40;;;;;;1776807;79;20164;-78
2021/07/14 05:56:36;;;;;;;;;;;31.90;90.50;;;;;;1779255;80;20518;-77
2021/07/14 05:59:06;;;;;;;;;;;32.00;90.70;;;;;;1782059;79;20267;-79
2021/07/14 06:01:37;;;;;;;;;;;32.00;90.60;;;;;;1780977;80;20222;-80
2021/07/14 06:04:07;;;;;;;;;;;32.20;90.00;;;;;;1781046;78;20544;-84
2021/07/14 06:06:38;;;;;;;;;;;32.20;88.90;;;;;;1777733;80;20249;-81
2021/07/14 06:09:08;;;;;;;;;;;32.20;88.50;;;;;;1784598;80;20305;-81
2021/07/14 06:11:41;;;;;;;;;;;32.20;89.30;;;;;;1782702;79;20240;-81
2021/07/14 06:14:11;;;;;;;;;;;32.20;90.20;;;;;;1781940;78;20372;-80
2021/07/14 06:16:41;;;;;;;;;;;32.30;89.20;;;;;;1782768;78;20507;-80
2021/07/14 06:19:11;;;;;;;;;;;32.30;88.70;;;;;;1784247;78;20199;-82
2021/07/14 06:21:40;;;;;;;;;;;32.30;89.00;;;;;;1783320;79;20204;-80
2021/07/14 06:24:13;;;;;;;;;;;32.40;89.60;;;;;;1782882;78;20174;-80
2021/07/14 06:26:44;;;;;;;;;;;32.40;87.70;;;;;;1782494;79;20540;-80
2021/07/14 06:29:14;;;;;;;;;;;32.40;84.40;;;;;;1782758;79;20193;-83
2021/07/14 06:31:45;;;;;;;;;;;32.30;85.70;;;;;;1779616;80;20247;-82
2021/07/14 06:34:15;;;;;;;;;;;32.20;86.10;;;;;;1785287;79;20139;-81
2021/07/14 06:36:44;;;;;;;;;;;32.10;86.40;;;;;;1784076;80;20221;-80
2021/07/14 06:39:14;;;;;;;;;;;32.00;87.50;;;;;;1784158;78;20220;-80
2021/07/14 06:41:43;;;;;;;;;;;31.80;87.60;;;;;;1783023;78;20181;-79
2021/07/14 06:44:13;;;;;;;;;;;31.80;88.60;;;;;;1785919;78;20229;-79
2021/07/14 06:46:43;;;;;;;;;;;31.70;88.00;;;;;;1780480;80;20135;-80
2021/07/14 06:49:13;;;;;;;;;;;31.70;88.00;;;;;;1784605;79;20532;-79
2021/07/14 06:51:42;;;;;;;;;;;31.60;88.20;;;;;;1783017;79;20176;-81
2021/07/14 06:54:13;;;;;;;;;;;31.60;89.40;;;;;;1776382;80;20259;-81
2021/07/14 06:56:44;;;;;;;;;;;31.50;87.90;;;;;;1787430;79;20245;-78
2021/07/14 06:59:14;;;;;;;;;;;31.50;89.20;;;;;;1786324;79;20251;-80
2021/07/14 07:01:47;;;;;;;;;;;31.40;90.10;;;;;;1760116;80;20220;-81
2021/07/14 07:04:17;;;;;;;;;;;31.40;90.70;;;;;;1776638;79;20216;-80
2021/07/14 07:06:48;;;;;;;;;;;31.30;91.00;;;;;;1792356;79;20180;-79
2021/07/14 07:09:18;;;;;;;;;;;31.40;90.90;;;;;;1783208;79;20223;-79
2021/07/14 07:11:48;;;;;;;;;;;31.30;90.80;;;;;;1780601;80;20156;-80
2021/07/14 07:14:18;;;;;;;;;;;31.30;90.80;;;;;;1771497;80;20209;-81
2021/07/14 07:16:48;;;;;;;;;;;31.30;90.90;;;;;;1785509;79;20235;-80
2021/07/14 07:19:21;;;;;;;;;;;31.20;91.00;;;;;;1772570;79;20220;-82
2021/07/14 07:21:55;;;;;;;;;;;31.20;90.90;;;;;;1783620;79;20224;-81
2021/07/14 07:24:27;;;;;;;;;;;31.20;91.10;;;;;;1786512;78;20495;-82
2021/07/14 07:26:53;;;;;;;;;;;31.20;91.40;;;;;;1783927;78;20195;-81
2021/07/14 07:29:24;;;;;;;;;;;31.30;91.30;;;;;;1787020;79;20141;-81
2021/07/14 07:31:54;;;;;;;;;;;31.30;91.20;;;;;;1787328;78;20162;-80
2021/07/14 07:34:26;;;;;;;;;;;31.30;91.30;;;;;;1795261;78;20175;-79
2021/07/14 07:36:59;;;;;;;;;;;31.30;91.70;;;;;;1757225;80;20174;-79
2021/07/14 07:39:27;;;;;;;;;;;31.30;91.70;;;;;;1765525;80;20203;-80
2021/07/14 07:42:01;;;;;;;;;;;31.30;90.90;;;;;;1762311;80;20165;-79
2021/07/14 07:44:28;;;;;;;;;;;31.50;91.00;;;;;;1793008;78;20546;-79
2021/07/14 07:46:58;;;;;;;;;;;31.60;90.60;;;;;;1790864;78;20222;-79
2021/07/14 07:49:28;;;;;;;;;;;31.60;90.60;;;;;;1760458;80;20164;-81
2021/07/14 07:51:58;;;;;;;;;;;31.70;90.60;;;;;;1769609;79;20503;-80
2021/07/14 07:54:29;;;;;;;;;;;31.70;90.50;;;;;;1761906;80;20398;-80
2021/07/14 07:56:59;;;;;;;;;;;31.60;90.50;;;;;;1763932;80;20513;-80
2021/07/14 07:59:28;;;;;;;;;;;31.60;90.50;;;;;;1758570;80;20135;-80
2021/07/14 08:01:58;;;;;;;;;;;31.50;91.00;;;;;;1757047;80;20149;-79
2021/07/14 08:04:28;;;;;;;;;;;31.50;91.30;;;;;;1787095;79;20260;-80
2021/07/14 08:06:59;;;;;;;;;;;31.50;91.20;;;;;;1790776;79;20220;-80
2021/07/14 08:09:29;;;;;;;;;;;31.40;91.40;;;;;;1781927;80;20223;-80
2021/07/14 08:12:01;;;;;;;;;;;31.40;91.50;;;;;;1756695;80;20233;-79
2021/07/14 08:14:30;;;;;;;;;;;31.40;91.80;;;;;;1760448;80;20253;-79
2021/07/14 08:17:00;;;;;;;;;;;31.40;91.70;;;;;;1784705;79;20259;-79
2021/07/14 08:19:30;;;;;;;;;;;31.40;91.50;;;;;;1801859;78;20290;-79
2021/07/14 08:22:00;;;;;;;;;;;31.40;91.40;;;;;;1777801;80;20230;-80
2021/07/14 08:24:30;;;;;;;;;;;31.30;91.20;;;;;;1761566;81;20230;-79
2021/07/14 08:27:00;;;;;;;;;;;31.30;91.30;;;;;;1753042;80;20207;-80
2021/07/14 08:29:31;;;;;;;;;;;31.30;91.50;;;;;;1776356;79;20163;-83
2021/07/14 08:32:01;;;;;;;;;;;31.30;91.30;;;;;;1753306;81;20208;-81
2021/07/14 08:34:32;;;;;;;;;;;31.30;91.80;;;;;;1761125;81;20141;-82
2021/07/14 08:37:08;;;;;;;;;;;31.30;91.30;;;;;;1773360;81;20243;-83
2021/07/14 08:39:34;;;;;;;;;;;31.30;91.00;;;;;;1772488;80;20172;-84
2021/07/14 08:42:05;;;;;;;;;;;31.30;90.90;;;;;;1773464;80;20475;-84
2021/07/14 08:44:42;;;;;;;;;;;31.20;90.70;;;;;;1774308;79;20208;-84
2021/07/14 08:47:12;;;;;;;;;;;31.20;90.60;;;;;;1774951;80;20218;-83
2021/07/14 08:49:43;;;;;;;;;;;31.10;90.70;;;;;;1794576;80;20805;-86
2021/07/14 08:52:13;;;;;;;;;;;31.10;90.70;;;;;;1771651;80;20480;-84
2021/07/14 08:54:43;;;;;;;;;;;31.00;90.40;;;;;;1771792;81;20171;-85
2021/07/14 08:57:17;;;;;;;;;;;31.00;90.30;;;;;;1768083;79;20184;-83
2021/07/14 08:59:46;;;;;;;;;;;30.90;90.00;;;;;;1798723;78;20445;-84
2021/07/14 09:02:16;;;;;;;;;;;30.80;90.30;;;;;;1765041;81;20176;-85
2021/07/14 09:04:46;;;;;;;;;;;30.80;90.70;;;;;;1760743;80;20503;-81
2021/07/14 09:07:21;;;;;;;;;;;30.80;90.80;;;;;;1763357;80;20139;-81
2021/07/14 09:09:51;;;;;;;;;;;30.80;90.60;;;;;;1756164;81;20581;-81
2021/07/14 09:12:20;;;;;;;;;;;30.70;90.60;;;;;;1776949;80;20242;-81
2021/07/14 09:14:50;;;;;;;;;;;30.60;91.00;;;;;;1765994;81;20234;-82
2021/07/14 09:17:24;;;;;;;;;;;30.60;91.20;;;;;;1798823;80;20189;-81
2021/07/14 09:19:55;;;;;;;;;;;30.60;91.40;;;;;;1766918;81;20265;-82
2021/07/14 09:22:25;;;;;;;;;;;30.60;91.60;;;;;;1750838;80;20231;-83
2021/07/14 09:24:56;;;;;;;;;;;30.60;91.70;;;;;;1758291;80;20218;-82
2021/07/14 09:27:35;;;;;;;;;;;30.60;92.00;;;;;;1775765;80;20194;-81
2021/07/14 09:29:59;;;;;;;;;;;30.60;92.10;;;;;;1793136;80;20198;-81
2021/07/14 09:32:31;;;;;;;;;;;30.60;92.00;;;;;;1767018;79;20271;-83
2021/07/14 09:35:00;;;;;;;;;;;30.60;91.10;;;;;;1767166;80;20244;-77
2021/07/14 09:37:30;;;;;;;;;;;30.60;90.90;;;;;;1767006;81;20140;-79
2021/07/14 09:40:00;;;;;;;;;;;30.60;91.20;;;;;;1796175;80;20167;-80
2021/07/14 09:42:29;;;;;;;;;;;30.60;92.20;;;;;;1786714;80;20192;-80
2021/07/14 09:44:59;;;;;;;;;;;30.60;92.40;;;;;;1797273;79;20244;-79
2021/07/14 09:47:29;;;;;;;;;;;30.60;92.70;;;;;;1792320;79;20225;-79
2021/07/14 09:49:59;;;;;;;;;;;30.50;92.30;;;;;;1794164;79;20221;-78
2021/07/14 09:52:33;;;;;;;;;;;30.50;92.30;;;;;;1793081;78;20244;-79
2021/07/14 09:55:00;;;;;;;;;;;30.50;92.50;;;;;;1797405;78;20297;-80
2021/07/14 09:57:30;;;;;;;;;;;30.50;92.70;;;;;;1794271;80;20190;-79
2021/07/14 10:00:01;;;;;;;;;;;30.40;92.70;;;;;;1796233;78;20166;-80
2021/07/14 10:02:33;;;;;;;;;;;30.40;92.60;;;;;;1764208;80;20242;-82
2021/07/14 10:05:04;;;;;;;;;;;30.40;92.60;;;;;;1794456;79;20231;-80
2021/07/14 10:07:34;;;;;;;;;;;30.30;92.50;;;;;;1790231;79;20193;-79
2021/07/14 10:10:05;;;;;;;;;;;30.30;92.40;;;;;;1798000;79;20213;-79
2021/07/14 10:12:36;;;;;;;;;;;30.30;91.80;;;;;;1786648;80;20182;-77
2021/07/14 10:15:07;;;;;;;;;;;30.30;91.60;;;;;;1761768;81;20239;-76
2021/07/14 10:17:38;;;;;;;;;;;30.10;91.90;;;;;;1788813;79;20386;-78
2021/07/14 10:20:09;;;;;;;;;;;30.10;91.90;;;;;;1780551;80;20407;-79
2021/07/14 10:22:39;;;;;;;;;;;30.00;91.80;;;;;;1785447;79;20142;-78
2021/07/14 10:25:09;;;;;;;;;;;30.00;91.50;;;;;;1764371;80;20235;-79
2021/07/14 10:27:39;;;;;;;;;;;29.90;91.80;;;;;;1797892;79;20520;-79
2021/07/14 10:30:08;;;;;;;;;;;29.90;92.00;;;;;;1828908;78;20212;-82
2021/07/14 10:32:39;;;;;;;;;;;29.90;92.00;;;;;;1798195;78;20214;-80
2021/07/14 10:35:14;;;;;;;;;;;29.90;92.00;;;;;;1796162;78;20478;-84
2021/07/14 10:37:45;;;;;;;;;;;29.90;92.20;;;;;;1798600;78;20411;-84
2021/07/14 10:40:16;;;;;;;;;;;29.90;92.60;;;;;;1784345;79;20184;-82
2021/07/14 10:42:46;;;;;;;;;;;29.90;92.80;;;;;;1804748;79;20244;-83
2021/07/14 10:45:17;;;;;;;;;;;29.80;93.10;;;;;;1794380;78;20203;-84
2021/07/14 10:47:47;;;;;;;;;;;29.80;93.40;;;;;;1773832;80;20199;-82
2021/07/14 10:50:18;;;;;;;;;;;29.80;93.80;;;;;;1767456;80;20563;-85
2021/07/14 10:52:48;;;;;;;;;;;29.80;94.30;;;;;;1802602;79;20202;-83
2021/07/14 10:55:19;;;;;;;;;;;29.80;94.30;;;;;;1779402;79;20238;-83
2021/07/14 10:57:54;;;;;;;;;;;29.80;94.10;;;;;;1777251;80;20454;-85
2021/07/14 11:00:27;;;;;;;;;;;29.80;94.10;;;;;;1826557;78;20191;-83
2021/07/14 11:02:57;;;;;;;;;;;29.80;94.10;;;;;;1824398;78;20179;-83
2021/07/14 11:05:28;;;;;;;;;;;29.80;94.10;;;;;;1814858;77;20251;-85
2021/07/14 11:07:57;;;;;;;;;;;29.70;94.00;;;;;;1814518;78;20485;-83
2021/07/14 11:10:28;;;;;;;;;;;29.70;94.20;;;;;;1819088;78;20269;-85
2021/07/14 11:12:58;;;;;;;;;;;29.60;94.40;;;;;;1815635;78;20185;-84
2021/07/14 11:15:29;;;;;;;;;;;29.60;94.40;;;;;;1821276;78;20500;-85
2021/07/14 11:18:00;;;;;;;;;;;29.50;94.60;;;;;;1830138;77;20182;-85
2021/07/14 11:20:33;;;;;;;;;;;29.40;94.80;;;;;;1817830;77;20120;-85
2021/07/14 11:23:04;;;;;;;;;;;29.40;94.90;;;;;;1816759;78;20295;-84
2021/07/14 11:25:34;;;;;;;;;;;29.40;95.00;;;;;;1812607;78;20124;-84
2021/07/14 11:28:05;;;;;;;;;;;29.40;94.90;;;;;;1764623;80;20185;-86
2021/07/14 11:30:35;;;;;;;;;;;29.40;94.70;;;;;;1792511;78;20169;-84
2021/07/14 11:33:06;;;;;;;;;;;29.40;94.80;;;;;;1757267;80;20182;-86
2021/07/14 11:35:36;;;;;;;;;;;29.40;95.00;;;;;;1772217;80;20191;-85
2021/07/14 11:38:07;;;;;;;;;;;29.30;95.10;;;;;;1769436;79;20249;-83
2021/07/14 11:40:38;;;;;;;;;;;29.20;95.00;;;;;;1758300;81;20197;-84
2021/07/14 11:43:09;;;;;;;;;;;29.20;95.10;;;;;;1779334;80;20129;-84
2021/07/14 11:45:40;;;;;;;;;;;29.30;95.10;;;;;;1770276;80;20268;-82
2021/07/14 11:48:11;;;;;;;;;;;29.30;95.00;;;;;;1794119;79;20191;-84
2021/07/14 11:50:42;;;;;;;;;;;29.30;94.90;;;;;;1794414;79;20499;-82
2021/07/14 11:53:13;;;;;;;;;;;29.20;94.70;;;;;;1763868;80;20264;-80
2021/07/14 11:55:42;;;;;;;;;;;29.20;94.60;;;;;;1759363;80;20217;-84
2021/07/14 11:58:14;;;;;;;;;;;29.20;94.60;;;;;;1796467;79;20207;-85
2021/07/14 12:00:46;;;;;;;;;;;29.20;94.70;;;;;;1795481;79;20192;-84
2021/07/14 12:03:17;;;;;;;;;;;29.20;94.80;;;;;;1778624;79;20493;-83
2021/07/14 12:05:47;;;;;;;;;;;29.30;94.80;;;;;;1778903;79;20173;-84
2021/07/14 12:08:16;;;;;;;;;;;29.30;94.70;;;;;;1785337;79;20124;-81
2021/07/14 12:10:47;;;;;;;;;;;29.20;94.60;;;;;;1771068;79;20352;-83
2021/07/14 12:13:18;;;;;;;;;;;29.20;94.60;;;;;;1790862;78;20199;-93
2021/07/14 12:15:48;;;;;;;;;;;29.20;94.60;;;;;;1772951;79;20207;-91
2021/07/14 12:18:18;;;;;;;;;;;29.20;94.60;;;;;;1754184;81;20177;-88
2021/07/14 12:20:57;;;;;;;;;;;29.20;94.70;;;;;;1791087;79;20204;-90
2021/07/14 12:23:42;;;;;;;;;;;29.20;94.70;;;;;;1777181;80;20140;-89
2021/07/14 12:26:12;;;;;;;;;;;29.20;94.80;;;;;;1778769;80;20203;-92
2021/07/14 12:28:42;;;;;;;;;;;29.20;94.80;;;;;;1793177;78;20184;-89
2021/07/14 12:31:13;;;;;;;;;;;29.20;94.80;;;;;;1759022;80;20204;-90
2021/07/14 12:33:43;;;;;;;;;;;29.20;94.80;;;;;;1781863;80;20216;-90
2021/07/14 12:36:12;;;;;;;;;;;29.20;94.90;;;;;;1809838;78;20556;-89
2021/07/14 12:38:42;;;;;;;;;;;29.20;94.80;;;;;;1789120;80;20426;-88
2021/07/14 12:41:13;;;;;;;;;;;29.20;94.70;;;;;;1778476;79;20182;-90
2021/07/14 12:43:42;;;;;;;;;;;29.20;94.80;;;;;;1788265;79;20207;-89
2021/07/14 12:46:13;;;;;;;;;;;29.20;94.60;;;;;;1779490;78;20255;-91
2021/07/14 12:48:45;;;;;;;;;;;29.20;94.50;;;;;;1784389;79;20220;-89
2021/07/14 12:51:18;;;;;;;;;;;29.20;94.50;;;;;;1777012;80;20170;-89
2021/07/14 12:53:53;;;;;;;;;;;29.20;94.60;;;;;;1775192;80;20589;-89
2021/07/14 12:56:36;;;;;;;;;;;29.20;94.40;;;;;;1772594;80;20159;-90
2021/07/14 12:59:08;;;;;;;;;;;29.10;94.40;;;;;;1770611;79;20195;-89
2021/07/14 13:01:39;;;;;;;;;;;29.10;94.50;;;;;;1756888;80;20204;-89
2021/07/14 13:04:13;;;;;;;;;;;29.10;94.50;;;;;;1773074;80;20137;-89
2021/07/14 13:06:44;;;;;;;;;;;29.10;94.70;;;;;;1785421;79;20267;-90
2021/07/14 13:09:15;;;;;;;;;;;29.10;94.80;;;;;;1783023;80;20269;-89
2021/07/14 13:11:46;;;;;;;;;;;29.10;94.80;;;;;;1761422;79;20258;-90
2021/07/14 13:14:16;;;;;;;;;;;29.10;94.90;;;;;;1784769;79;20197;-90
2021/07/14 13:16:46;;;;;;;;;;;29.10;95.00;;;;;;1783352;79;20211;-90
2021/07/14 13:19:18;;;;;;;;;;;29.10;95.10;;;;;;1773588;80;20236;-90
2021/07/14 13:21:51;;;;;;;;;;;29.00;94.80;;;;;;1784709;78;20229;-89
2021/07/14 13:24:23;;;;;;;;;;;29.00;95.30;;;;;;1767902;80;20263;-91
2021/07/14 13:26:54;;;;;;;;;;;28.90;95.40;;;;;;1787910;78;20275;-89
2021/07/14 13:29:31;;;;;;;;;;;28.90;95.50;;;;;;1779377;79;20273;-91
2021/07/14 13:32:19;;;;;;;;;;;28.90;95.70;;;;;;1771260;80;20432;-90
2021/07/14 13:34:52;;;;;;;;;;;28.90;95.70;;;;;;1768383;81;20232;-88
2021/07/14 13:37:22;;;;;;;;;;;28.90;95.90;;;;;;1762516;79;20202;-90
2021/07/14 13:39:52;;;;;;;;;;;28.80;95.90;;;;;;1763955;79;20187;-90
2021/07/14 13:42:23;;;;;;;;;;;28.80;96.00;;;;;;1779025;79;20172;-91
2021/07/14 13:44:53;;;;;;;;;;;28.70;96.00;;;;;;1786598;79;20583;-91
2021/07/14 13:47:22;;;;;;;;;;;28.70;96.10;;;;;;1787920;79;20529;-90
2021/07/14 13:49:52;;;;;;;;;;;28.70;96.20;;;;;;1781086;79;20170;-92
2021/07/14 13:52:25;;;;;;;;;;;28.60;96.20;;;;;;1770413;80;20141;-90
2021/07/14 13:54:55;;;;;;;;;;;28.50;96.30;;;;;;1755565;81;20195;-90
2021/07/14 13:57:26;;;;;;;;;;;28.50;96.30;;;;;;1751309;81;20228;-91
2021/07/14 13:59:56;;;;;;;;;;;28.50;96.50;;;;;;1777800;79;20463;-90
2021/07/14 14:02:27;;;;;;;;;;;28.40;96.50;;;;;;1796781;79;20182;-89
2021/07/14 14:04:59;;;;;;;;;;;28.30;96.50;;;;;;1787679;79;20185;-91
2021/07/14 14:07:31;;;;;;;;;;;28.20;96.60;;;;;;1787441;79;20189;-91
2021/07/14 14:10:02;;;;;;;;;;;28.30;96.80;;;;;;1790374;80;20139;-91
2021/07/14 14:12:33;;;;;;;;;;;28.20;96.80;;;;;;1778182;80;20168;-91
2021/07/14 14:15:13;;;;;;;;;;;28.20;96.90;;;;;;1787428;80;20205;-89
2021/07/14 14:17:44;;;;;;;;;;;28.10;96.90;;;;;;1767503;80;20248;-90
2021/07/14 14:20:19;;;;;;;;;;;28.10;97.00;;;;;;1769917;80;20212;-88
2021/07/14 14:22:49;;;;;;;;;;;28.10;97.10;;;;;;1785230;79;20481;-89
2021/07/14 14:25:28;;;;;;;;;;;28.10;97.20;;;;;;1784073;79;20173;-90
2021/07/14 14:30:25;;;;;;;;;;;28.00;97.30;;;;;;1757758;81;20347;-90
2021/07/14 14:33:00;;;;;;;;;;;27.90;97.40;;;;;;1763861;80;20195;-90
2021/07/14 14:35:31;;;;;;;;;;;27.90;97.50;;;;;;1800172;78;20204;-91
2021/07/14 14:38:03;;;;;;;;;;;27.90;97.60;;;;;;1765687;79;20179;-91
2021/07/14 14:40:37;;;;;;;;;;;27.80;97.60;;;;;;1781880;79;20219;-90
2021/07/14 14:43:11;;;;;;;;;;;27.90;97.80;;;;;;1781813;79;20165;-90
2021/07/14 14:45:43;;;;;;;;;;;27.90;97.70;;;;;;1797087;79;20484;-90
2021/07/14 14:48:18;;;;;;;;;;;27.80;97.80;;;;;;1767406;80;20219;-91
2021/07/14 14:50:53;;;;;;;;;;;27.80;97.90;;;;;;1778945;79;20301;-91
2021/07/14 14:53:21;;;;;;;;;;;27.80;98.00;;;;;;1761125;80;20249;-91
2021/07/14 14:55:51;;;;;;;;;;;27.70;98.10;;;;;;1795161;79;20173;-90
2021/07/14 14:58:21;;;;;;;;;;;27.70;98.00;;;;;;1772198;79;20139;-90
2021/07/14 15:00:56;;;;;;;;;;;27.70;98.00;;;;;;1790068;79;20428;-91